createdAt,value
2022-11-18T00:01:09.683Z,11.70
2022-11-18T00:03:37.526Z,15.33
2022-11-18T00:06:04.785Z,10.23
2022-11-18T00:08:32.009Z,12.90
2022-11-18T00:10:59.175Z,10.03
2022-11-18T00:13:44.931Z,11.13
2022-11-18T00:16:12.847Z,14.87
2022-11-18T00:18:40.258Z,10.93
2022-11-18T00:21:10.903Z,11.53
2022-11-18T00:23:38.252Z,12.13
2022-11-18T00:26:05.369Z,12.70
2022-11-18T00:28:32.755Z,12.93
2022-11-18T00:31:10.148Z,10.77
2022-11-18T00:33:37.577Z,12.97
2022-11-18T00:36:05.676Z,11.00
2022-11-18T00:38:33.144Z,16.37
2022-11-18T00:41:01.306Z,13.73
2022-11-18T00:43:28.351Z,12.37
2022-11-18T00:45:55.408Z,14.17
2022-11-18T00:48:22.634Z,12.57
2022-11-18T00:50:50.543Z,13.07
2022-11-18T00:53:18.531Z,16.93
2022-11-18T00:55:45.689Z,11.70
2022-11-18T00:58:14.342Z,14.17
2022-11-18T01:00:42.071Z,13.17
2022-11-18T01:03:09.494Z,10.77
2022-11-18T01:05:36.680Z,13.03
2022-11-18T01:08:03.776Z,12.17
2022-11-18T01:10:30.888Z,11.53
2022-11-18T01:13:16.865Z,12.80
2022-11-18T01:15:44.841Z,12.00
2022-11-18T01:18:11.937Z,10.70
2022-11-18T01:20:39.002Z,13.53
2022-11-18T01:23:06.060Z,11.47
2022-11-18T01:25:33.208Z,12.30
2022-11-18T01:28:00.253Z,14.13
2022-11-18T01:30:27.324Z,13.47
2022-11-18T01:32:54.485Z,15.17
2022-11-18T01:35:21.535Z,13.60
2022-11-18T01:37:48.570Z,12.83
2022-11-18T01:40:15.803Z,11.10
2022-11-18T01:42:42.858Z,13.77
2022-11-18T01:45:22.025Z,13.10
2022-11-18T01:47:52.749Z,15.80
2022-11-18T01:50:20.892Z,13.93
2022-11-18T01:52:51.648Z,12.63
2022-11-18T01:55:23.685Z,11.87
2022-11-18T01:57:52.439Z,12.77
2022-11-18T02:00:19.521Z,16.17
2022-11-18T02:02:46.732Z,11.43
2022-11-18T02:05:14.169Z,11.30
2022-11-18T02:07:43.312Z,11.03
2022-11-18T02:10:11.034Z,11.23
2022-11-18T02:12:38.258Z,11.73
2022-11-18T02:15:05.616Z,12.67
2022-11-18T02:17:41.546Z,9.80
2022-11-18T02:20:29.407Z,12.43
2022-11-18T02:23:14.895Z,14.83
2022-11-18T02:25:54.742Z,14.47
2022-11-18T02:28:21.752Z,13.80
2022-11-18T02:30:48.825Z,9.97
2022-11-18T02:33:36.105Z,11.87
2022-11-18T02:36:08.636Z,11.20
2022-11-18T02:38:38.197Z,11.17
2022-11-18T02:41:08.576Z,12.30
2022-11-18T02:43:41.139Z,11.03
2022-11-18T02:46:10.321Z,11.33
2022-11-18T02:48:45.593Z,10.27
2022-11-18T02:51:13.344Z,10.57
2022-11-18T02:53:41.305Z,12.00
2022-11-18T02:56:09.859Z,12.27
2022-11-18T02:58:36.906Z,10.70
2022-11-18T03:01:03.987Z,12.37
2022-11-18T03:03:32.795Z,10.10
2022-11-18T03:06:08.799Z,10.43
2022-11-18T03:08:39.113Z,11.97
2022-11-18T03:11:11.871Z,9.77
2022-11-18T03:14:08.308Z,11.10
2022-11-18T03:16:46.533Z,11.30
2022-11-18T03:19:16.626Z,10.70
2022-11-18T03:21:46.351Z,9.77
2022-11-18T03:24:16.397Z,11.50
2022-11-18T03:26:46.620Z,10.03
2022-11-18T03:29:22.189Z,10.47
2022-11-18T03:31:55.400Z,12.53
2022-11-18T03:34:28.485Z,11.40
2022-11-18T03:37:00.649Z,10.27
2022-11-18T03:39:29.597Z,14.00
2022-11-18T03:42:01.681Z,10.20
2022-11-18T03:44:31.261Z,10.87
2022-11-18T03:47:09.701Z,10.90
2022-11-18T03:49:40.325Z,11.37
2022-11-18T03:52:10.822Z,11.33
2022-11-18T03:54:39.303Z,9.93
2022-11-18T03:57:14.568Z,10.70
2022-11-18T03:59:44.648Z,9.60
2022-11-18T04:02:13.314Z,12.30
2022-11-18T04:04:40.757Z,12.30
2022-11-18T04:07:07.859Z,11.97
2022-11-18T04:09:38.440Z,11.43
2022-11-18T04:12:08.196Z,12.10
2022-11-18T04:14:37.174Z,12.13
2022-11-18T04:17:17.978Z,12.40
2022-11-18T04:19:45.064Z,11.23
2022-11-18T04:22:12.391Z,12.27
2022-11-18T04:24:39.700Z,13.97
2022-11-18T04:27:07.056Z,11.00
2022-11-18T04:29:34.692Z,16.90
2022-11-18T04:32:02.281Z,14.73
2022-11-18T04:34:29.380Z,13.53
2022-11-18T04:36:56.451Z,13.97
2022-11-18T04:39:23.544Z,13.20
2022-11-18T04:41:56.958Z,15.07
2022-11-18T04:44:24.053Z,13.87
2022-11-18T04:46:51.109Z,12.00
2022-11-18T04:49:18.485Z,13.53
2022-11-18T04:51:46.036Z,12.13
2022-11-18T04:54:13.417Z,13.73
2022-11-18T04:56:44.284Z,13.90
2022-11-18T04:59:13.505Z,12.03
2022-11-18T05:01:40.879Z,13.00
2022-11-18T05:04:08.357Z,13.63
2022-11-18T05:06:35.709Z,13.50
2022-11-18T05:09:02.837Z,12.27
2022-11-18T05:11:48.903Z,15.87
2022-11-18T05:14:16.049Z,12.60
2022-11-18T05:16:43.166Z,14.87
2022-11-18T05:19:10.275Z,15.53
2022-11-18T05:21:37.906Z,14.07
2022-11-18T05:24:05.388Z,14.10
2022-11-18T05:26:32.578Z,14.40
2022-11-18T05:28:59.690Z,15.33
2022-11-18T05:31:26.914Z,13.50
2022-11-18T05:33:54.156Z,12.27
2022-11-18T05:36:21.665Z,13.87
2022-11-18T05:38:49.301Z,16.47
2022-11-18T05:41:35.640Z,13.87
2022-11-18T05:44:03.353Z,13.20
2022-11-18T05:46:30.761Z,13.00
2022-11-18T05:48:57.952Z,14.93
2022-11-18T05:51:25.038Z,12.33
2022-11-18T05:53:53.013Z,13.30
2022-11-18T05:56:22.597Z,13.23
2022-11-18T05:58:49.660Z,12.50
2022-11-18T06:01:20.469Z,10.90
2022-11-18T06:03:47.844Z,11.53
2022-11-18T06:06:17.731Z,11.87
2022-11-18T06:08:47.553Z,12.80
2022-11-18T06:11:16.821Z,12.07
2022-11-18T06:13:50.413Z,14.83
2022-11-18T06:16:19.175Z,13.53
2022-11-18T06:18:46.360Z,12.10
2022-11-18T06:21:13.405Z,12.83
2022-11-18T06:23:41.968Z,11.97
2022-11-18T06:26:09.711Z,11.27
2022-11-18T06:28:37.371Z,11.93
2022-11-18T06:31:04.434Z,11.00
2022-11-18T06:33:31.523Z,11.30
2022-11-18T06:35:58.597Z,10.90
2022-11-18T06:38:25.854Z,10.27
2022-11-18T06:40:53.012Z,12.33
2022-11-18T06:43:38.894Z,13.97
2022-11-18T06:46:26.183Z,12.03
2022-11-18T06:48:53.279Z,12.17
2022-11-18T06:51:20.394Z,14.47
2022-11-18T06:53:47.552Z,13.17
2022-11-18T06:56:16.079Z,11.07
2022-11-18T06:58:43.235Z,13.20
2022-11-18T07:01:13.481Z,12.10
2022-11-18T07:03:44.305Z,13.70
2022-11-18T07:06:12.143Z,12.10
2022-11-18T07:08:40.209Z,11.20
2022-11-18T07:11:08.904Z,9.23
2022-11-18T07:13:40.647Z,10.77
2022-11-18T07:16:11.812Z,10.00
2022-11-18T07:18:39.612Z,9.37
2022-11-18T07:21:07.775Z,12.63
2022-11-18T07:23:35.346Z,11.40
2022-11-18T07:26:02.733Z,9.90
2022-11-18T07:28:30.122Z,11.47
2022-11-18T07:31:04.506Z,11.50
2022-11-18T07:33:32.034Z,9.47
2022-11-18T07:36:06.257Z,12.03
2022-11-18T07:38:33.352Z,9.37
2022-11-18T07:41:10.665Z,9.47
2022-11-18T07:43:38.204Z,10.83
2022-11-18T07:46:17.270Z,12.03
2022-11-18T07:48:45.203Z,9.90
2022-11-18T07:51:12.913Z,12.10
2022-11-18T07:53:40.016Z,10.27
2022-11-18T07:56:07.836Z,7.90
2022-11-18T07:58:35.320Z,9.73
2022-11-18T08:01:14.550Z,12.83
2022-11-18T08:03:42.692Z,7.87
2022-11-18T08:06:10.473Z,7.50
2022-11-18T08:08:37.630Z,10.03
2022-11-18T08:11:08.808Z,9.43
2022-11-18T08:13:37.497Z,8.70
2022-11-18T08:16:05.340Z,9.27
2022-11-18T08:18:33.052Z,10.47
2022-11-18T08:21:06.364Z,9.63
2022-11-18T08:23:38.907Z,9.23
2022-11-18T08:26:10.375Z,11.57
2022-11-18T08:28:37.771Z,11.83
2022-11-18T08:31:15.711Z,9.30
2022-11-18T08:33:42.905Z,11.33
2022-11-18T08:36:17.209Z,9.77
2022-11-18T08:38:44.871Z,9.27
2022-11-18T08:41:13.664Z,10.53
2022-11-18T08:43:40.767Z,11.90
2022-11-18T08:46:07.855Z,11.87
2022-11-18T08:48:34.893Z,11.80
2022-11-18T08:51:02.532Z,10.90
2022-11-18T08:53:29.861Z,14.87
2022-11-18T08:55:57.765Z,14.63
2022-11-18T08:58:25.158Z,13.40
2022-11-18T09:00:52.536Z,15.17
2022-11-18T09:03:19.877Z,12.43
2022-11-18T09:05:47.128Z,14.67
2022-11-18T09:08:15.267Z,13.27
2022-11-18T09:10:42.375Z,14.83
2022-11-18T09:13:38.601Z,13.87
2022-11-18T09:15:58.776Z,15.93
2022-11-18T09:18:26.414Z,13.57
2022-11-18T09:20:57.577Z,13.10
2022-11-18T09:23:24.666Z,17.33
2022-11-18T09:26:21.243Z,13.13
2022-11-18T09:28:48.315Z,14.07
2022-11-18T09:31:16.826Z,14.70
2022-11-18T09:33:44.159Z,12.97
2022-11-18T09:36:18.869Z,13.67
2022-11-18T09:38:51.461Z,21.07
2022-11-18T09:41:38.788Z,15.27
2022-11-18T09:44:11.836Z,16.67
2022-11-18T09:46:44.852Z,16.70
2022-11-18T09:49:15.334Z,19.00
2022-11-18T09:51:44.616Z,18.27
2022-11-18T09:54:13.533Z,17.57
2022-11-18T09:56:41.678Z,16.67
2022-11-18T09:59:11.360Z,17.17
2022-11-18T10:01:38.524Z,17.03
2022-11-18T10:04:05.637Z,16.33
2022-11-18T10:06:36.402Z,18.07
2022-11-18T10:09:05.498Z,19.30
2022-11-18T10:11:51.775Z,17.07
2022-11-18T10:14:31.582Z,13.07
2022-11-18T10:17:02.243Z,15.00
2022-11-18T10:19:40.897Z,17.53
2022-11-18T10:22:24.255Z,17.77
2022-11-18T10:24:55.627Z,16.33
2022-11-18T10:27:23.343Z,11.70
2022-11-18T10:29:54.702Z,15.07
2022-11-18T10:32:22.149Z,14.83
2022-11-18T10:34:56.542Z,16.67
2022-11-18T10:38:06.420Z,13.63
2022-11-18T10:40:27.788Z,12.53
2022-11-18T10:42:55.117Z,11.70
2022-11-18T10:45:22.207Z,11.40
2022-11-18T10:48:07.598Z,13.57
2022-11-18T10:50:34.787Z,11.13
2022-11-18T10:53:02.291Z,11.37
2022-11-18T10:55:29.803Z,10.93
2022-11-18T10:57:58.997Z,8.80
2022-11-18T11:00:42.681Z,11.47
2022-11-18T11:03:32.836Z,10.43
2022-11-18T11:06:18.826Z,9.33
2022-11-18T11:08:56.401Z,11.90
2022-11-18T11:11:31.520Z,13.90
2022-11-18T11:14:02.947Z,12.40
2022-11-18T11:16:31.121Z,11.47
2022-11-18T11:19:00.525Z,13.50
2022-11-18T11:21:30.480Z,14.63
2022-11-18T11:23:57.682Z,13.90
2022-11-18T11:29:39.629Z,15.27
2022-11-18T11:32:15.615Z,14.43
2022-11-18T11:34:45.545Z,12.03
2022-11-18T11:37:15.425Z,12.70
2022-11-18T11:39:54.311Z,14.53
2022-11-18T11:42:40.571Z,14.07
2022-11-18T11:45:26.109Z,14.83
2022-11-18T11:47:56.869Z,13.77
2022-11-18T11:50:28.580Z,13.77
2022-11-18T11:53:05.262Z,16.10
2022-11-18T11:55:46.812Z,15.73
2022-11-18T11:58:13.872Z,15.27
2022-11-18T12:00:42.789Z,16.63
2022-11-18T12:03:09.877Z,21.57
2022-11-18T12:05:39.261Z,18.50
2022-11-18T12:08:15.513Z,17.20
2022-11-18T12:10:48.371Z,17.37
2022-11-18T12:13:22.919Z,21.77
2022-11-18T12:15:56.034Z,20.87
2022-11-18T12:18:26.818Z,19.13
2022-11-18T12:20:54.778Z,22.27
2022-11-18T12:23:25.801Z,18.03
2022-11-18T12:25:54.631Z,18.90
2022-11-18T12:28:24.619Z,16.37
2022-11-18T12:30:51.695Z,17.13
2022-11-18T12:33:19.060Z,17.67
2022-11-18T12:35:50.549Z,20.70
2022-11-18T12:38:32.045Z,16.57
2022-11-18T12:40:59.064Z,18.37
2022-11-18T12:43:44.749Z,19.57
2022-11-18T12:46:30.310Z,20.37
2022-11-18T12:48:57.655Z,19.50
2022-11-18T12:51:25.302Z,18.37
2022-11-18T12:53:53.219Z,22.93
2022-11-18T12:56:23.897Z,22.57
2022-11-18T12:58:52.192Z,18.00
2022-11-18T13:01:30.586Z,24.10
2022-11-18T13:04:17.619Z,21.83
2022-11-18T13:06:44.962Z,25.60
2022-11-18T13:09:16.725Z,19.90
2022-11-18T13:11:58.913Z,22.60
2022-11-18T13:14:48.853Z,24.07
2022-11-18T13:17:43.331Z,26.20
2022-11-18T13:20:19.195Z,21.90
2022-11-18T13:23:15.294Z,23.77
2022-11-18T13:25:45.067Z,20.97
2022-11-18T13:28:30.772Z,24.67
2022-11-18T13:31:02.486Z,21.27
2022-11-18T13:33:29.997Z,24.40
2022-11-18T13:35:57.197Z,24.03
2022-11-18T13:38:28.534Z,20.47
2022-11-18T13:41:05.178Z,19.73
2022-11-18T13:43:33.076Z,17.93
2022-11-18T13:46:05.431Z,19.57
2022-11-18T13:48:33.982Z,19.27
2022-11-18T13:51:01.659Z,22.30
2022-11-18T13:53:29.645Z,19.30
2022-11-18T13:56:07.161Z,18.73
2022-11-18T13:59:15.720Z,19.57
2022-11-18T14:01:30.613Z,18.23
2022-11-18T14:03:58.925Z,20.57
2022-11-18T14:06:33.328Z,17.80
2022-11-18T14:09:19.562Z,22.00
2022-11-18T14:11:57.701Z,21.10
2022-11-18T14:14:29.666Z,19.67
2022-11-18T14:17:03.836Z,20.37
2022-11-18T14:19:32.153Z,20.63
2022-11-18T14:22:11.585Z,17.23
2022-11-18T14:24:40.167Z,22.73
2022-11-18T14:27:26.060Z,23.70
2022-11-18T14:29:53.167Z,25.97
2022-11-18T14:32:21.491Z,21.17
2022-11-18T14:34:57.903Z,21.77
2022-11-18T14:37:25.004Z,19.20
2022-11-18T14:39:56.637Z,23.67
2022-11-18T14:42:24.408Z,26.40
2022-11-18T14:44:51.578Z,25.07
2022-11-18T14:47:28.956Z,26.27
2022-11-18T14:49:56.278Z,23.67
2022-11-18T14:52:23.339Z,23.37
2022-11-18T14:54:52.050Z,24.50
2022-11-18T14:57:19.190Z,24.93
2022-11-18T14:59:46.348Z,24.23
2022-11-18T15:02:15.198Z,25.30
2022-11-18T15:04:42.606Z,25.83
2022-11-18T15:07:23.186Z,25.27
2022-11-18T15:09:51.052Z,21.07
2022-11-18T15:12:18.169Z,20.70
2022-11-18T15:14:45.224Z,22.93
2022-11-18T15:17:13.527Z,21.33
2022-11-18T15:19:43.568Z,27.23
2022-11-18T15:22:10.670Z,20.90
2022-11-18T15:24:37.843Z,28.70
2022-11-18T15:27:05.586Z,20.73
2022-11-18T15:29:32.895Z,21.53
2022-11-18T15:32:00.090Z,21.47
2022-11-18T15:34:27.260Z,22.30
2022-11-18T15:36:54.306Z,24.67
2022-11-18T15:39:21.389Z,28.93
2022-11-18T15:41:48.445Z,22.57
2022-11-18T15:44:16.151Z,25.37
2022-11-18T15:46:45.385Z,25.10
2022-11-18T15:49:14.081Z,29.73
2022-11-18T15:51:41.505Z,23.30
2022-11-18T15:54:08.635Z,25.27
2022-11-18T15:56:35.884Z,30.07
2022-11-18T15:59:04.332Z,25.63
2022-11-18T16:01:35.811Z,19.93
2022-11-18T16:04:03.582Z,23.00
2022-11-18T16:06:30.768Z,21.83
2022-11-18T16:09:00.306Z,31.50
2022-11-18T16:11:46.968Z,30.00
2022-11-18T16:14:14.569Z,27.47
2022-11-18T16:16:42.937Z,22.73
2022-11-18T16:19:10.991Z,26.87
2022-11-18T16:21:41.107Z,31.47
2022-11-18T16:24:09.189Z,27.70
2022-11-18T16:26:37.100Z,29.67
2022-11-18T16:29:04.966Z,25.30
2022-11-18T16:31:41.316Z,29.23
2022-11-18T16:34:09.806Z,25.83
2022-11-18T16:36:37.559Z,29.90
2022-11-18T16:39:08.969Z,25.03
2022-11-18T16:41:36.265Z,26.43
2022-11-18T16:44:05.981Z,27.07
2022-11-18T16:46:34.316Z,21.07
2022-11-18T16:49:01.908Z,21.23
2022-11-18T16:51:30.203Z,24.30
2022-11-18T16:54:01.073Z,27.17
2022-11-18T16:56:29.402Z,19.10
2022-11-18T16:58:57.596Z,22.50
2022-11-18T17:01:29.174Z,20.20
2022-11-18T17:03:57.522Z,24.43
2022-11-18T17:06:25.398Z,23.73
2022-11-18T17:08:52.744Z,19.83
2022-11-18T17:11:20.203Z,22.77
2022-11-18T17:13:47.380Z,22.47
2022-11-18T17:16:16.217Z,19.53
2022-11-18T17:18:43.892Z,24.67
2022-11-18T17:21:12.306Z,21.17
2022-11-18T17:23:39.702Z,15.93
2022-11-18T17:26:07.396Z,17.07
2022-11-18T17:28:35.663Z,20.97
2022-11-18T17:31:06.869Z,18.07
2022-11-18T17:33:34.254Z,21.60
2022-11-18T17:36:11.451Z,16.90
2022-11-18T17:38:39.978Z,15.70
2022-11-18T17:41:07.402Z,12.93
2022-11-18T17:43:34.718Z,14.97
2022-11-18T17:46:02.448Z,18.37
2022-11-18T17:48:31.770Z,12.97
2022-11-18T17:51:05.364Z,11.90
2022-11-18T17:53:32.719Z,11.03
2022-11-18T17:56:03.883Z,11.53
2022-11-18T17:58:31.741Z,11.43
2022-11-18T18:01:06.614Z,13.47
2022-11-18T18:03:33.713Z,11.67
2022-11-18T18:06:04.744Z,10.10
2022-11-18T18:08:32.420Z,15.80
2022-11-18T18:11:02.928Z,15.10
2022-11-18T18:13:48.735Z,14.63
2022-11-18T18:16:15.779Z,11.87
2022-11-18T18:18:42.878Z,14.23
2022-11-18T18:21:12.843Z,11.13
2022-11-18T18:23:40.258Z,12.40
2022-11-18T18:26:08.126Z,10.63
2022-11-18T18:28:35.317Z,9.20
2022-11-18T18:31:03.607Z,9.07
2022-11-18T18:33:30.732Z,10.70
2022-11-18T18:35:58.449Z,10.37
2022-11-18T18:38:25.719Z,12.03
2022-11-18T18:40:53.111Z,11.17
2022-11-18T18:43:20.584Z,12.20
2022-11-18T18:46:06.371Z,10.23
2022-11-18T18:48:33.945Z,9.40
2022-11-18T18:51:05.168Z,9.67
2022-11-18T18:53:33.245Z,9.73
2022-11-18T18:56:00.615Z,7.97
2022-11-18T18:58:27.926Z,35.33
2022-11-18T19:00:58.251Z,9.30
2022-11-18T19:03:25.573Z,11.23
2022-11-18T19:06:27.293Z,6.77
2022-11-18T19:08:39.647Z,8.20
2022-11-18T19:11:06.770Z,7.23
2022-11-18T19:13:33.836Z,7.67
2022-11-18T19:16:05.604Z,6.37
2022-11-18T19:18:36.167Z,5.03
2022-11-18T19:21:03.240Z,8.10
2022-11-18T19:23:30.265Z,6.77
2022-11-18T19:26:00.894Z,6.33
2022-11-18T19:28:28.303Z,6.13
2022-11-18T19:30:55.352Z,5.33
2022-11-18T19:33:22.417Z,5.30
2022-11-18T19:35:49.485Z,7.10
2022-11-18T19:38:16.552Z,8.10
2022-11-18T19:40:44.527Z,4.87
2022-11-18T19:43:11.719Z,6.27
2022-11-18T19:45:38.769Z,5.53
2022-11-18T19:48:06.032Z,6.10
2022-11-18T19:50:33.167Z,5.77
2022-11-18T19:53:20.212Z,6.67
2022-11-18T19:55:53.403Z,9.13
2022-11-18T19:58:20.485Z,6.10
2022-11-18T20:00:47.508Z,5.73
2022-11-18T20:03:14.665Z,5.30
2022-11-18T20:05:54.038Z,5.33
2022-11-18T20:08:21.999Z,5.97
2022-11-18T20:10:49.670Z,7.53
2022-11-18T20:13:16.800Z,6.80
2022-11-18T20:15:44.541Z,9.10
2022-11-18T20:18:11.899Z,7.30
2022-11-18T20:20:39.007Z,5.90
2022-11-18T20:23:06.134Z,8.10
2022-11-18T20:25:33.253Z,8.07
2022-11-18T20:28:00.301Z,8.03
2022-11-18T20:30:27.380Z,8.63
2022-11-18T20:32:54.488Z,8.63
2022-11-18T20:35:21.541Z,10.83
2022-11-18T20:37:48.671Z,14.23
2022-11-18T20:40:15.827Z,10.97
2022-11-18T20:43:01.616Z,9.43
2022-11-18T20:45:28.689Z,7.03
2022-11-18T20:47:55.785Z,8.37
2022-11-18T20:50:22.871Z,8.57
2022-11-18T20:52:49.936Z,8.03
2022-11-18T20:55:17.192Z,5.30
2022-11-18T20:57:44.252Z,6.43
2022-11-18T21:00:11.650Z,7.33
2022-11-18T21:02:38.699Z,6.53
2022-11-18T21:05:06.034Z,10.13
2022-11-18T21:07:33.733Z,7.73
2022-11-18T21:10:01.758Z,8.43
2022-11-18T21:12:28.886Z,6.47
2022-11-18T21:14:55.965Z,7.63
2022-11-18T21:17:23.038Z,8.63
2022-11-18T21:19:50.204Z,6.30
2022-11-18T21:22:17.489Z,7.90
2022-11-18T21:24:45.167Z,7.20
2022-11-18T21:27:12.739Z,7.77
2022-11-18T21:29:41.412Z,7.17
2022-11-18T21:32:08.478Z,5.77
2022-11-18T21:34:35.532Z,9.57
2022-11-18T21:37:02.728Z,5.17
2022-11-18T21:39:29.916Z,6.50
2022-11-18T21:41:57.616Z,6.83
2022-11-18T21:44:27.587Z,6.87
2022-11-18T21:46:55.005Z,9.57
2022-11-18T21:49:22.891Z,8.83
2022-11-18T21:51:50.207Z,7.67
2022-11-18T21:54:18.400Z,7.20
2022-11-18T21:56:45.621Z,7.77
2022-11-18T21:59:12.918Z,7.47
2022-11-18T22:01:40.021Z,8.50
2022-11-18T22:04:07.640Z,9.20
2022-11-18T22:06:35.062Z,9.53
2022-11-18T22:09:03.602Z,7.77
2022-11-18T22:11:30.862Z,8.03
2022-11-18T22:13:58.083Z,7.53
2022-11-18T22:16:25.926Z,8.20
2022-11-18T22:18:59.270Z,7.03
2022-11-18T22:21:29.871Z,8.53
2022-11-18T22:23:59.290Z,6.27
2022-11-18T22:26:26.401Z,8.03
2022-11-18T22:28:54.438Z,8.43
2022-11-18T22:31:22.696Z,8.13
2022-11-18T22:33:51.168Z,6.93
2022-11-18T22:36:19.033Z,9.07
2022-11-18T22:38:46.275Z,6.67
2022-11-18T22:41:34.556Z,6.20
2022-11-18T22:44:06.943Z,7.47
2022-11-18T22:46:35.082Z,12.27
2022-11-18T22:49:02.180Z,10.57
2022-11-18T22:51:29.422Z,7.13
2022-11-18T22:54:15.771Z,6.73
2022-11-18T22:56:43.352Z,7.00
2022-11-18T22:59:13.515Z,10.23
2022-11-18T23:01:40.921Z,6.30
2022-11-18T23:04:08.014Z,8.13
2022-11-18T23:06:35.145Z,7.03
2022-11-18T23:09:02.325Z,6.00
2022-11-18T23:11:48.533Z,7.10
2022-11-18T23:14:15.607Z,6.97
2022-11-18T23:16:43.694Z,7.37
2022-11-18T23:19:12.230Z,6.87
2022-11-18T23:21:39.369Z,10.43
2022-11-18T23:24:07.633Z,8.13
2022-11-18T23:26:34.772Z,7.57
2022-11-18T23:29:01.909Z,6.47
2022-11-18T23:31:29.295Z,6.93
2022-11-18T23:33:57.236Z,6.97
2022-11-18T23:36:25.043Z,7.20
2022-11-18T23:38:53.026Z,6.60
2022-11-18T23:41:20.472Z,5.57
2022-11-18T23:43:48.731Z,8.87
2022-11-18T23:46:17.493Z,10.00
2022-11-18T23:48:45.352Z,8.00
2022-11-18T23:51:19.097Z,8.00
2022-11-18T23:53:48.168Z,17.63
2022-11-18T23:56:16.294Z,7.53
2022-11-18T23:58:44.475Z,8.00
